Private Wetterstation Sandau
Wetterdaten: Montag, 24.09.2012
Datum Zeit Temp. A. Feuchte A. Luftdruck Regen Wind Richtung Richtung Taupunkt Windchill
24.09.2012 00:01 10,9 C 68 % 1013,2 hPa 0,0 l/m 4,3 km/h (1 Bft) O-SO 112 5,2 C 10,9 C
24.09.2012 00:06 10,8 C 68 % 1013,0 hPa 0,0 l/m 4,0 km/h (1 Bft) O 90 5,1 C 10,8 C
24.09.2012 00:11 10,8 C 68 % 1012,9 hPa 0,0 l/m 6,5 km/h (2 Bft) O-NO 67 5,1 C 10,8 C
24.09.2012 00:16 10,8 C 68 % 1012,6 hPa 0,0 l/m 4,0 km/h (1 Bft) O-NO 67 5,1 C 10,8 C
24.09.2012 00:21 10,7 C 68 % 1012,6 hPa 0,0 l/m 1,1 km/h (1 Bft) O-SO 112 5,0 C 10,7 C
24.09.2012 00:26 10,7 C 68 % 1012,6 hPa 0,0 l/m 1,1 km/h (1 Bft) O-NO 67 5,0 C 10,7 C
24.09.2012 00:31 10,6 C 69 % 1012,6 hPa 0,0 l/m 7,6 km/h (2 Bft) NO 45 5,2 C 10,6 C
24.09.2012 00:36 10,6 C 69 % 1012,4 hPa 0,0 l/m 3,2 km/h (1 Bft) O-SO 112 5,2 C 10,6 C
24.09.2012 00:41 10,5 C 69 % 1012,2 hPa 0,0 l/m 2,2 km/h (1 Bft) O-NO 67 5,1 C 10,5 C
24.09.2012 00:46 10,5 C 69 % 1012,2 hPa 0,0 l/m 5,4 km/h (1 Bft) O-SO 112 5,1 C 10,5 C
24.09.2012 00:51 10,5 C 69 % 1012,2 hPa 0,0 l/m 4,0 km/h (1 Bft) SO 135 5,1 C 10,5 C
24.09.2012 00:56 10,5 C 70 % 1012,1 hPa 0,0 l/m 2,5 km/h (1 Bft) O-SO 112 5,3 C 10,5 C
24.09.2012 01:01 10,4 C 71 % 1012,1 hPa 0,0 l/m 1,1 km/h (1 Bft) SO 135 5,4 C 10,4 C
24.09.2012 01:06 10,4 C 72 % 1012,2 hPa 0,0 l/m 2,2 km/h (1 Bft) SO 135 5,6 C 10,4 C
24.09.2012 01:11 10,4 C 72 % 1012,0 hPa 0,0 l/m 4,0 km/h (1 Bft) O-NO 67 5,6 C 10,4 C
24.09.2012 01:16 10,3 C 72 % 1012,0 hPa 0,0 l/m 9,0 km/h (2 Bft) O-SO 112 5,5 C 10,3 C
24.09.2012 01:21 10,3 C 73 % 1011,9 hPa 0,0 l/m 4,7 km/h (1 Bft) O 90 5,7 C 10,3 C
24.09.2012 01:26 10,3 C 73 % 1011,8 hPa 0,0 l/m 0,0 km/h (0 Bft) O-SO 112 5,7 C 10,3 C
24.09.2012 01:31 10,2 C 74 % 1011,8 hPa 0,0 l/m 3,6 km/h (1 Bft) O-SO 112 5,8 C 10,2 C
24.09.2012 01:36 10,1 C 74 % 1011,8 hPa 0,0 l/m 2,9 km/h (1 Bft) O-SO 112 5,7 C 10,1 C
24.09.2012 01:41 10,1 C 75 % 1011,9 hPa 0,5 l/m 6,1 km/h (2 Bft) S-SO 157 5,9 C 10,1 C
24.09.2012 01:46 9,9 C 76 % 1011,8 hPa 0,0 l/m 3,2 km/h (1 Bft) SO 135 5,9 C 9,9 C
24.09.2012 01:51 9,9 C 77 % 1011,7 hPa 0,0 l/m 2,9 km/h (1 Bft) S-SO 157 6,1 C 9,9 C
24.09.2012 01:56 9,8 C 78 % 1011,7 hPa 0,0 l/m 2,5 km/h (1 Bft) SO 135 6,1 C 9,8 C
24.09.2012 02:01 9,6 C 78 % 1011,4 hPa 0,5 l/m 4,3 km/h (1 Bft) SO 135 6,0 C 9,6 C
24.09.2012 02:06 9,5 C 80 % 1011,0 hPa 0,5 l/m 4,0 km/h (1 Bft) SO 135 6,2 C 9,5 C
24.09.2012 02:11 9,4 C 81 % 1010,9 hPa 0,5 l/m 13,3 km/h (3 Bft) O 90 6,3 C 7,4 C
24.09.2012 02:16 9,3 C 81 % 1010,8 hPa 0,0 l/m 7,6 km/h (2 Bft) O 90 6,2 C 8,3 C
24.09.2012 02:21 9,3 C 82 % 1010,9 hPa 0,5 l/m 6,5 km/h (2 Bft) O-SO 112 6,4 C 8,5 C
24.09.2012 02:26 9,3 C 82 % 1010,8 hPa 0,0 l/m 14,8 km/h (3 Bft) S-SO 157 6,4 C 7,1 C
24.09.2012 02:31 9,3 C 83 % 1010,7 hPa 0,5 l/m 13,7 km/h (3 Bft) O-SO 112 6,6 C 7,2 C
24.09.2012 02:36 9,2 C 83 % 1010,6 hPa 0,0 l/m 11,5 km/h (2 Bft) SO 135 6,5 C 7,4 C
24.09.2012 02:41 9,2 C 83 % 1010,5 hPa 0,0 l/m 6,5 km/h (2 Bft) O-SO 112 6,5 C 8,4 C
24.09.2012 02:46 9,2 C 83 % 1010,3 hPa 0,0 l/m 4,7 km/h (1 Bft) O-SO 112 6,5 C 8,9 C
24.09.2012 02:51 9,2 C 83 % 1010,2 hPa 0,0 l/m 16,6 km/h (3 Bft) SO 135 6,5 C 6,7 C
24.09.2012 02:56 9,2 C 83 % 1010,1 hPa 0,0 l/m 6,1 km/h (2 Bft) SO 135 6,5 C 8,5 C
24.09.2012 03:01 9,2 C 83 % 1009,8 hPa 0,0 l/m 6,5 km/h (2 Bft) O-SO 112 6,5 C 8,4 C
24.09.2012 03:06 9,2 C 83 % 1009,7 hPa 0,0 l/m 18,0 km/h (3 Bft) O-NO 67 6,5 C 6,6 C
24.09.2012 03:11 9,2 C 83 % 1009,9 hPa 0,0 l/m 9,0 km/h (2 Bft) O 90 6,5 C 7,9 C
24.09.2012 03:16 9,3 C 82 % 1009,8 hPa 0,0 l/m 7,2 km/h (2 Bft) O-SO 112 6,4 C 8,4 C
24.09.2012 03:21 9,3 C 82 % 1009,6 hPa 0,0 l/m 8,3 km/h (2 Bft) O-SO 112 6,4 C 8,1 C
24.09.2012 03:26 9,3 C 82 % 1009,6 hPa 0,0 l/m 4,3 km/h (1 Bft) SO 135 6,4 C 9,3 C
24.09.2012 03:31 9,3 C 82 % 1009,6 hPa 0,0 l/m 5,0 km/h (1 Bft) SO 135 6,4 C 9,0 C
24.09.2012 03:36 9,3 C 82 % 1009,8 hPa 0,0 l/m 10,1 km/h (2 Bft) O-NO 67 6,4 C 7,8 C
24.09.2012 03:41 9,3 C 81 % 1009,8 hPa 0,0 l/m 7,2 km/h (2 Bft) O-SO 112 6,2 C 8,4 C
24.09.2012 03:46 9,4 C 81 % 1009,5 hPa 0,0 l/m 6,5 km/h (2 Bft) O-NO 67 6,3 C 8,7 C
24.09.2012 03:51 9,4 C 81 % 1009,3 hPa 0,0 l/m 7,2 km/h (2 Bft) O-NO 67 6,3 C 8,5 C
24.09.2012 03:56 9,4 C 81 % 1009,2 hPa 0,0 l/m 13,3 km/h (3 Bft) O-SO 112 6,3 C 7,4 C
24.09.2012 04:01 9,4 C 81 % 1009,2 hPa 0,0 l/m 9,0 km/h (2 Bft) SO 135 6,3 C 8,1 C
24.09.2012 04:06 9,5 C 81 % 1009,2 hPa 0,0 l/m 2,9 km/h (1 Bft) O-NO 67 6,4 C 9,5 C
24.09.2012 04:11 9,4 C 81 % 1009,1 hPa 0,0 l/m 7,2 km/h (2 Bft) O 90 6,3 C 8,5 C
24.09.2012 04:16 9,4 C 81 % 1009,0 hPa 0,0 l/m 8,6 km/h (2 Bft) O-SO 112 6,3 C 8,2 C
24.09.2012 04:21 9,4 C 81 % 1009,1 hPa 0,0 l/m 4,0 km/h (1 Bft) O-NO 67 6,3 C 9,4 C
24.09.2012 04:26 9,4 C 81 % 1009,0 hPa 0,0 l/m 6,5 km/h (2 Bft) O 90 6,3 C 8,7 C
24.09.2012 04:31 9,4 C 81 % 1009,1 hPa 0,0 l/m 4,0 km/h (1 Bft) O 90 6,3 C 9,4 C
24.09.2012 04:36 9,4 C 81 % 1008,9 hPa 0,0 l/m 5,0 km/h (1 Bft) O 90 6,3 C 9,1 C
24.09.2012 04:41 9,4 C 81 % 1009,1 hPa 0,0 l/m 7,2 km/h (2 Bft) O 90 6,3 C 8,5 C
24.09.2012 04:46 9,5 C 81 % 1008,6 hPa 0,0 l/m 11,2 km/h (2 Bft) O-SO 112 6,4 C 7,8 C
24.09.2012 04:51 9,5 C 81 % 1008,5 hPa 0,0 l/m 4,0 km/h (1 Bft) O-SO 112 6,4 C 9,5 C
24.09.2012 04:56 9,5 C 82 % 1008,2 hPa 0,0 l/m 14,4 km/h (3 Bft) O-NO 67 6,6 C 7,4 C
24.09.2012 05:01 9,4 C 82 % 1008,1 hPa 0,5 l/m 8,3 km/h (2 Bft) O-SO 112 6,5 C 8,2 C
24.09.2012 05:06 9,4 C 82 % 1008,1 hPa 0,0 l/m 3,2 km/h (1 Bft) O-SO 112 6,5 C 9,4 C
24.09.2012 05:11 9,3 C 83 % 1007,9 hPa 0,0 l/m 8,3 km/h (2 Bft) O-NO 67 6,6 C 8,1 C
24.09.2012 05:16 9,3 C 83 % 1007,6 hPa 0,0 l/m 5,0 km/h (1 Bft) O 90 6,6 C 9,0 C
24.09.2012 05:21 9,3 C 83 % 1007,4 hPa 0,0 l/m 22,7 km/h (4 Bft) SO 135 6,6 C 6,2 C
24.09.2012 05:26 9,3 C 83 % 1007,3 hPa 0,0 l/m 4,3 km/h (1 Bft) O 90 6,6 C 9,3 C
24.09.2012 05:31 9,3 C 83 % 1007,2 hPa 0,0 l/m 15,1 km/h (3 Bft) O 90 6,6 C 7,0 C
24.09.2012 05:36 9,4 C 83 % 1007,0 hPa 0,0 l/m 9,7 km/h (2 Bft) O-NO 67 6,7 C 8,0 C
24.09.2012 05:41 9,4 C 82 % 1006,9 hPa 0,0 l/m 16,9 km/h (3 Bft) O-SO 112 6,5 C 6,9 C
24.09.2012 05:46 9,4 C 82 % 1006,9 hPa 0,0 l/m 19,4 km/h (3 Bft) S-SO 157 6,5 C 6,7 C
24.09.2012 05:51 9,5 C 82 % 1006,8 hPa 0,5 l/m 22,0 km/h (4 Bft) SO 135 6,6 C 6,6 C
24.09.2012 05:56 9,5 C 82 % 1006,6 hPa 0,0 l/m 13,7 km/h (3 Bft) O 90 6,6 C 7,5 C
24.09.2012 06:01 9,5 C 82 % 1006,6 hPa 0,0 l/m 19,1 km/h (3 Bft) O-SO 112 6,6 C 6,8 C
24.09.2012 06:06 9,5 C 81 % 1006,3 hPa 0,0 l/m 12,2 km/h (2 Bft) S-SO 157 6,4 C 7,7 C
24.09.2012 06:11 9,6 C 81 % 1006,5 hPa 0,0 l/m 14,4 km/h (3 Bft) O 90 6,5 C 7,5 C
24.09.2012 06:16 9,6 C 81 % 1006,3 hPa 0,0 l/m 11,5 km/h (2 Bft) SO 135 6,5 C 7,9 C
24.09.2012 06:21 9,6 C 81 % 1006,1 hPa 0,0 l/m 8,6 km/h (2 Bft) SO 135 6,5 C 8,4 C
24.09.2012 06:26 9,6 C 80 % 1006,0 hPa 0,0 l/m 4,7 km/h (1 Bft) O-SO 112 6,3 C 9,4 C
24.09.2012 06:31 9,7 C 80 % 1006,0 hPa 0,0 l/m 9,7 km/h (2 Bft) O 90 6,4 C 8,3 C
24.09.2012 06:36 9,8 C 80 % 1005,9 hPa 0,0 l/m 10,1 km/h (2 Bft) O-SO 112 6,5 C 8,4 C
24.09.2012 06:41 9,8 C 80 % 1005,8 hPa 0,0 l/m 17,3 km/h (3 Bft) O-SO 112 6,5 C 7,4 C
24.09.2012 06:46 9,8 C 80 % 1005,9 hPa 0,0 l/m 4,7 km/h (1 Bft) O-SO 112 6,5 C 9,6 C
24.09.2012 06:51 9,8 C 80 % 1005,8 hPa 0,0 l/m 8,3 km/h (2 Bft) S-SO 157 6,5 C 8,7 C
24.09.2012 06:56 9,8 C 80 % 1005,7 hPa 0,0 l/m 6,1 km/h (2 Bft) O-SO 112 6,5 C 9,2 C
24.09.2012 07:01 9,8 C 80 % 1005,7 hPa 0,0 l/m 6,1 km/h (2 Bft) O-SO 112 6,5 C 9,2 C
24.09.2012 07:06 9,8 C 79 % 1005,6 hPa 0,0 l/m 9,7 km/h (2 Bft) O-SO 112 6,3 C 8,4 C
24.09.2012 07:11 9,8 C 79 % 1005,6 hPa 0,0 l/m 11,2 km/h (2 Bft) O-SO 112 6,3 C 8,2 C
24.09.2012 07:16 9,9 C 79 % 1005,6 hPa 0,0 l/m 19,1 km/h (3 Bft) SO 135 6,4 C 7,3 C
24.09.2012 07:21 9,9 C 79 % 1005,6 hPa 0,0 l/m 10,4 km/h (2 Bft) S 180 6,4 C 8,4 C
24.09.2012 07:26 9,9 C 79 % 1005,3 hPa 0,0 l/m 14,4 km/h (3 Bft) SO 135 6,4 C 7,9 C
24.09.2012 07:31 9,8 C 79 % 1005,3 hPa 0,0 l/m 6,1 km/h (2 Bft) O-NO 67 6,3 C 9,2 C
24.09.2012 07:36 9,8 C 79 % 1005,3 hPa 0,0 l/m 8,6 km/h (2 Bft) S-SO 157 6,3 C 8,7 C
24.09.2012 07:41 9,8 C 80 % 1005,3 hPa 0,0 l/m 10,1 km/h (2 Bft) NO 45 6,5 C 8,4 C
24.09.2012 07:46 9,8 C 80 % 1005,3 hPa 0,0 l/m 6,8 km/h (2 Bft) SO 135 6,5 C 9,0 C
24.09.2012 07:51 9,8 C 80 % 1005,0 hPa 0,0 l/m 14,4 km/h (3 Bft) SO 135 6,5 C 7,7 C
24.09.2012 07:56 9,8 C 80 % 1005,0 hPa 0,0 l/m 12,2 km/h (2 Bft) O-SO 112 6,5 C 8,0 C
24.09.2012 08:01 9,8 C 80 % 1004,9 hPa 0,0 l/m 14,8 km/h (3 Bft) O-SO 112 6,5 C 7,7 C
24.09.2012 08:06 9,9 C 79 % 1004,5 hPa 0,0 l/m 14,8 km/h (3 Bft) O-SO 112 6,4 C 7,8 C
24.09.2012 08:11 9,9 C 79 % 1004,2 hPa 0,0 l/m 18,4 km/h (3 Bft) SO 135 6,4 C 7,4 C
24.09.2012 08:16 9,9 C 78 % 1004,0 hPa 0,0 l/m 9,0 km/h (2 Bft) SO 135 6,2 C 8,7 C
24.09.2012 08:21 9,9 C 78 % 1003,9 hPa 0,0 l/m 5,4 km/h (1 Bft) SO 135 6,2 C 9,5 C
24.09.2012 08:26 9,9 C 78 % 1004,0 hPa 0,0 l/m 9,4 km/h (2 Bft) SO 135 6,2 C 8,6 C
24.09.2012 08:31 10,1 C 78 % 1004,0 hPa 0,0 l/m 6,1 km/h (2 Bft) O 90 6,4 C 10,1 C
24.09.2012 08:36 10,1 C 78 % 1004,1 hPa 0,0 l/m 7,2 km/h (2 Bft) O 90 6,4 C 10,1 C
24.09.2012 08:41 10,2 C 77 % 1004,1 hPa 0,0 l/m 5,8 km/h (2 Bft) O-NO 67 6,4 C 10,2 C
24.09.2012 08:46 10,2 C 77 % 1004,1 hPa 0,0 l/m 7,9 km/h (2 Bft) O-SO 112 6,4 C 10,2 C
24.09.2012 08:51 10,3 C 77 % 1004,1 hPa 0,0 l/m 7,6 km/h (2 Bft) S-SO 157 6,4 C 10,3 C
24.09.2012 08:56 10,3 C 77 % 1003,8 hPa 0,0 l/m 6,1 km/h (2 Bft) SO 135 6,4 C 10,3 C
24.09.2012 09:01 10,4 C 77 % 1003,6 hPa 0,0 l/m 17,3 km/h (3 Bft) O 90 6,5 C 10,4 C
24.09.2012 09:06 10,4 C 76 % 1003,3 hPa 0,0 l/m 20,9 km/h (4 Bft) O-SO 112 6,4 C 10,4 C
24.09.2012 09:11 10,5 C 76 % 1003,0 hPa 0,0 l/m 14,4 km/h (3 Bft) O 90 6,5 C 10,5 C
24.09.2012 09:16 10,5 C 76 % 1003,1 hPa 0,0 l/m 10,8 km/h (2 Bft) O-NO 67 6,5 C 10,5 C
24.09.2012 09:21 10,6 C 75 % 1003,3 hPa 0,0 l/m 12,6 km/h (3 Bft) SO 135 6,4 C 10,6 C
24.09.2012 09:26 10,7 C 76 % 1003,3 hPa 0,0 l/m 16,6 km/h (3 Bft) O 90 6,6 C 10,7 C
24.09.2012 09:31 10,8 C 75 % 1003,3 hPa 0,0 l/m 9,4 km/h (2 Bft) O-SO 112 6,5 C 10,8 C
24.09.2012 09:36 10,8 C 75 % 1003,3 hPa 0,0 l/m 10,4 km/h (2 Bft) SO 135 6,5 C 10,8 C
24.09.2012 09:41 10,9 C 75 % 1003,3 hPa 0,0 l/m 14,8 km/h (3 Bft) O-SO 112 6,6 C 10,9 C
24.09.2012 09:46 10,9 C 75 % 1003,2 hPa 0,0 l/m 10,8 km/h (2 Bft) O-SO 112 6,6 C 10,9 C
24.09.2012 09:51 11,1 C 75 % 1003,2 hPa 0,0 l/m 6,8 km/h (2 Bft) SO 135 6,8 C 11,1 C
24.09.2012 09:56 11,1 C 75 % 1003,2 hPa 0,0 l/m 11,2 km/h (2 Bft) O-NO 67 6,8 C 11,1 C
24.09.2012 10:01 11,3 C 75 % 1003,3 hPa 0,0 l/m 7,6 km/h (2 Bft) SO 135 7,0 C 11,3 C
24.09.2012 10:06 11,3 C 75 % 1003,5 hPa 0,0 l/m 5,8 km/h (2 Bft) O-NO 67 7,0 C 11,3 C
24.09.2012 10:11 11,4 C 74 % 1003,6 hPa 0,0 l/m 6,1 km/h (2 Bft) NO 45 6,9 C 11,4 C
24.09.2012 10:16 11,4 C 74 % 1003,7 hPa 0,0 l/m 3,6 km/h (1 Bft) NO 45 6,9 C 11,4 C
24.09.2012 10:21 11,4 C 74 % 1003,6 hPa 0,0 l/m 4,0 km/h (1 Bft) O-NO 67 6,9 C 11,4 C
24.09.2012 10:26 11,5 C 74 % 1003,3 hPa 0,0 l/m 9,0 km/h (2 Bft) O-NO 67 7,0 C 11,5 C
24.09.2012 10:31 11,6 C 73 % 1003,4 hPa 0,0 l/m 4,3 km/h (1 Bft) O-NO 67 6,9 C 11,6 C
24.09.2012 10:36 11,6 C 73 % 1003,4 hPa 0,0 l/m 9,4 km/h (2 Bft) SO 135 6,9 C 11,6 C
24.09.2012 10:41 11,7 C 73 % 1003,2 hPa 0,0 l/m 6,1 km/h (2 Bft) O 90 7,0 C 11,7 C
24.09.2012 10:46 11,8 C 73 % 1003,1 hPa 0,0 l/m 16,9 km/h (3 Bft) S-SO 157 7,1 C 11,8 C
24.09.2012 10:51 11,8 C 73 % 1003,1 hPa 0,0 l/m 8,6 km/h (2 Bft) O-SO 112 7,1 C 11,8 C
24.09.2012 10:56 11,9 C 73 % 1002,7 hPa 0,0 l/m 16,2 km/h (3 Bft) O 90 7,2 C 11,9 C
24.09.2012 11:01 11,9 C 72 % 1002,7 hPa 0,0 l/m 9,4 km/h (2 Bft) O-NO 67 7,0 C 11,9 C
24.09.2012 11:06 11,9 C 72 % 1002,4 hPa 0,0 l/m 10,1 km/h (2 Bft) O-NO 67 7,0 C 11,9 C
24.09.2012 11:11 12,1 C 72 % 1002,6 hPa 0,0 l/m 6,5 km/h (2 Bft) O-NO 67 7,2 C 12,1 C
24.09.2012 11:16 12,2 C 72 % 1002,8 hPa 0,0 l/m 9,0 km/h (2 Bft) O-SO 112 7,3 C 12,2 C
24.09.2012 11:21 12,3 C 71 % 1002,8 hPa 0,0 l/m 10,1 km/h (2 Bft) O-NO 67 7,2 C 12,3 C
24.09.2012 11:26 12,4 C 71 % 1002,8 hPa 0,0 l/m 11,2 km/h (2 Bft) SO 135 7,3 C 12,4 C
24.09.2012 11:31 12,4 C 71 % 1002,8 hPa 0,0 l/m 13,0 km/h (3 Bft) O 90 7,3 C 12,4 C
24.09.2012 11:36 12,4 C 71 % 1002,7 hPa 0,0 l/m 5,0 km/h (1 Bft) O-SO 112 7,3 C 12,4 C
24.09.2012 11:41 12,5 C 71 % 1002,6 hPa 0,0 l/m 8,3 km/h (2 Bft) O-SO 112 7,4 C 12,5 C
24.09.2012 11:46 12,6 C 71 % 1002,6 hPa 0,0 l/m 10,8 km/h (2 Bft) O-SO 112 7,5 C 12,6 C
24.09.2012 11:51 12,6 C 71 % 1002,6 hPa 0,0 l/m 10,4 km/h (2 Bft) S-SO 157 7,5 C 12,6 C
24.09.2012 11:56 12,5 C 71 % 1002,4 hPa 0,0 l/m 12,2 km/h (2 Bft) O-SO 112 7,4 C 12,5 C
24.09.2012 12:01 12,5 C 71 % 1002,3 hPa 0,0 l/m 4,7 km/h (1 Bft) O 90 7,4 C 12,5 C
24.09.2012 12:06 12,6 C 71 % 1002,2 hPa 0,0 l/m 16,2 km/h (3 Bft) NO 45 7,5 C 12,6 C
24.09.2012 12:11 12,6 C 70 % 1002,1 hPa 0,0 l/m 10,1 km/h (2 Bft) NO 45 7,3 C 12,6 C
24.09.2012 12:16 12,7 C 70 % 1002,1 hPa 0,0 l/m 14,4 km/h (3 Bft) SO 135 7,4 C 12,7 C
24.09.2012 12:21 12,8 C 70 % 1001,9 hPa 0,0 l/m 10,8 km/h (2 Bft) O 90 7,5 C 12,8 C
24.09.2012 12:26 12,9 C 70 % 1001,9 hPa 0,0 l/m 18,0 km/h (3 Bft) S-SO 157 7,6 C 12,9 C
24.09.2012 12:31 13,1 C 70 % 1001,7 hPa 0,0 l/m 15,8 km/h (3 Bft) O-NO 67 7,8 C 13,1 C
24.09.2012 12:36 13,3 C 70 % 1001,6 hPa 0,0 l/m 19,1 km/h (3 Bft) O 90 7,9 C 13,3 C
24.09.2012 12:41 13,4 C 70 % 1001,9 hPa 0,0 l/m 15,8 km/h (3 Bft) O 90 8,0 C 13,4 C
24.09.2012 12:46 13,6 C 68 % 1001,9 hPa 0,0 l/m 7,6 km/h (2 Bft) S-SO 157 7,8 C 13,6 C
24.09.2012 12:51 13,6 C 68 % 1001,7 hPa 0,0 l/m 14,0 km/h (3 Bft) O-SO 112 7,8 C 13,6 C
24.09.2012 12:56 13,6 C 68 % 1001,6 hPa 0,0 l/m 15,5 km/h (3 Bft) O-SO 112 7,8 C 13,6 C
24.09.2012 13:01 13,6 C 68 % 1001,6 hPa 0,0 l/m 9,7 km/h (2 Bft) O 90 7,8 C 13,6 C
24.09.2012 13:06 13,6 C 69 % 1001,6 hPa 0,0 l/m 13,7 km/h (3 Bft) SO 135 8,0 C 13,6 C
24.09.2012 13:11 13,6 C 70 % 1001,1 hPa 0,0 l/m 7,6 km/h (2 Bft) O-NO 67 8,2 C 13,6 C
24.09.2012 13:16 13,6 C 70 % 1000,9 hPa 0,0 l/m 21,6 km/h (4 Bft) SO 135 8,2 C 13,6 C
24.09.2012 13:21 13,6 C 70 % 1001,2 hPa 0,0 l/m 13,0 km/h (3 Bft) O-SO 112 8,2 C 13,6 C
24.09.2012 13:26 13,6 C 70 % 1001,1 hPa 0,0 l/m 13,3 km/h (3 Bft) O-NO 67 8,2 C 13,6 C
24.09.2012 13:31 13,9 C 69 % 1001,1 hPa 0,0 l/m 15,1 km/h (3 Bft) SO 135 8,3 C 13,9 C
24.09.2012 13:36 14,2 C 68 % 1001,0 hPa 0,0 l/m 10,1 km/h (2 Bft) SO 135 8,4 C 14,2 C
24.09.2012 13:41 14,4 C 68 % 1000,8 hPa 0,0 l/m 4,7 km/h (1 Bft) S-SO 157 8,6 C 14,4 C
24.09.2012 13:46 14,4 C 68 % 1001,1 hPa 0,0 l/m 22,7 km/h (4 Bft) SO 135 8,6 C 14,4 C
24.09.2012 13:51 14,4 C 68 % 1000,8 hPa 0,0 l/m 16,9 km/h (3 Bft) SO 135 8,6 C 14,4 C
24.09.2012 13:56 14,3 C 69 % 1000,9 hPa 0,0 l/m 7,6 km/h (2 Bft) O-SO 112 8,7 C 14,3 C
24.09.2012 14:01 14,3 C 71 % 1000,6 hPa 0,0 l/m 13,0 km/h (3 Bft) O-SO 112 9,1 C 14,3 C
24.09.2012 14:06 14,3 C 71 % 1000,6 hPa 0,0 l/m 7,2 km/h (2 Bft) SO 135 9,1 C 14,3 C
24.09.2012 14:11 14,4 C 71 % 1000,2 hPa 0,0 l/m 6,1 km/h (2 Bft) O-SO 112 9,2 C 14,4 C
24.09.2012 14:16 14,3 C 71 % 1000,0 hPa 0,0 l/m 9,7 km/h (2 Bft) O-NO 67 9,1 C 14,3 C
24.09.2012 14:21 14,3 C 71 % 1000,2 hPa 0,0 l/m 19,8 km/h (3 Bft) SO 135 9,1 C 14,3 C
24.09.2012 14:26 14,4 C 71 % 1000,5 hPa 0,0 l/m 6,1 km/h (2 Bft) SO 135 9,2 C 14,4 C
24.09.2012 14:31 14,4 C 71 % 1000,8 hPa 0,0 l/m 6,5 km/h (2 Bft) SO 135 9,2 C 14,4 C
24.09.2012 14:36 14,2 C 73 % 1000,3 hPa 0,0 l/m 13,7 km/h (3 Bft) S-SO 157 9,4 C 14,2 C
24.09.2012 14:41 13,9 C 74 % 999,9 hPa 0,0 l/m 14,4 km/h (3 Bft) S-SO 157 9,3 C 13,9 C
24.09.2012 14:46 13,8 C 76 % 999,6 hPa 0,0 l/m 7,2 km/h (2 Bft) O 90 9,6 C 13,8 C
24.09.2012 14:51 13,6 C 78 % 999,6 hPa 0,0 l/m 21,2 km/h (4 Bft) SO 135 9,8 C 13,6 C
24.09.2012 14:56 13,3 C 78 % 999,7 hPa 0,0 l/m 9,4 km/h (2 Bft) SO 135 9,5 C 13,3 C
24.09.2012 15:01 13,1 C 80 % 999,8 hPa 0,0 l/m 12,6 km/h (3 Bft) S-SO 157 9,7 C 13,1 C
24.09.2012 15:06 12,9 C 81 % 999,7 hPa 0,0 l/m 11,9 km/h (2 Bft) SO 135 9,7 C 12,9 C
24.09.2012 15:11 12,9 C 82 % 999,7 hPa 0,0 l/m 12,2 km/h (2 Bft) SO 135 9,9 C 12,9 C
24.09.2012 15:16 12,8 C 83 % 999,5 hPa 0,0 l/m 19,8 km/h (3 Bft) O-SO 112 10,0 C 12,8 C
24.09.2012 15:21 12,7 C 83 % 999,8 hPa 0,0 l/m 10,1 km/h (2 Bft) O-SO 112 9,9 C 12,7 C
24.09.2012 15:26 12,7 C 83 % 999,7 hPa 0,0 l/m 9,7 km/h (2 Bft) SO 135 9,9 C 12,7 C
24.09.2012 15:31 12,6 C 84 % 999,5 hPa 0,0 l/m 14,0 km/h (3 Bft) O-NO 67 10,0 C 12,6 C
24.09.2012 15:36 12,6 C 84 % 999,6 hPa 0,0 l/m 11,2 km/h (2 Bft) SO 135 10,0 C 12,6 C
24.09.2012 15:41 12,6 C 84 % 999,5 hPa 0,0 l/m 10,1 km/h (2 Bft) S-SO 157 10,0 C 12,6 C
24.09.2012 15:46 12,5 C 84 % 999,6 hPa 0,0 l/m 16,6 km/h (3 Bft) S-SO 157 9,9 C 12,5 C
24.09.2012 15:51 12,5 C 84 % 999,4 hPa 0,0 l/m 18,7 km/h (3 Bft) SO 135 9,9 C 12,5 C
24.09.2012 15:56 12,5 C 85 % 999,4 hPa 0,0 l/m 13,0 km/h (3 Bft) SO 135 10,0 C 12,5 C
24.09.2012 16:01 12,5 C 85 % 999,5 hPa 0,0 l/m 9,4 km/h (2 Bft) SO 135 10,0 C 12,5 C
24.09.2012 16:06 12,5 C 85 % 999,3 hPa 0,0 l/m 9,7 km/h (2 Bft) SO 135 10,0 C 12,5 C
24.09.2012 16:11 12,5 C 85 % 999,3 hPa 0,0 l/m 7,9 km/h (2 Bft) SO 135 10,0 C 12,5 C
24.09.2012 16:16 12,5 C 85 % 999,5 hPa 0,0 l/m 10,1 km/h (2 Bft) SO 135 10,0 C 12,5 C
24.09.2012 16:21 12,6 C 84 % 999,4 hPa 0,0 l/m 6,5 km/h (2 Bft) O 90 10,0 C 12,6 C
24.09.2012 16:26 12,6 C 84 % 999,3 hPa 0,0 l/m 3,2 km/h (1 Bft) O 90 10,0 C 12,6 C
24.09.2012 16:31 12,7 C 84 % 999,2 hPa 0,0 l/m 9,7 km/h (2 Bft) O 90 10,1 C 12,7 C
24.09.2012 16:36 12,8 C 84 % 999,2 hPa 0,0 l/m 9,7 km/h (2 Bft) O-NO 67 10,2 C 12,8 C
24.09.2012 16:41 12,8 C 84 % 999,1 hPa 0,0 l/m 4,0 km/h (1 Bft) SO 135 10,2 C 12,8 C
24.09.2012 16:46 12,9 C 84 % 999,1 hPa 0,0 l/m 7,6 km/h (2 Bft) SO 135 10,3 C 12,9 C
24.09.2012 16:51 12,9 C 84 % 999,3 hPa 0,0 l/m 10,4 km/h (2 Bft) SO 135 10,3 C 12,9 C
24.09.2012 16:56 13,0 C 84 % 999,2 hPa 0,0 l/m 9,0 km/h (2 Bft) S-SO 157 10,4 C 13,0 C
24.09.2012 17:01 12,9 C 84 % 999,1 hPa 0,0 l/m 20,9 km/h (4 Bft) SO 135 10,3 C 12,9 C
24.09.2012 17:06 12,9 C 85 % 999,0 hPa 0,0 l/m 7,6 km/h (2 Bft) SO 135 10,4 C 12,9 C
24.09.2012 17:11 12,9 C 85 % 999,0 hPa 0,0 l/m 7,2 km/h (2 Bft) O-SO 112 10,4 C 12,9 C
24.09.2012 17:16 12,9 C 85 % 998,9 hPa 0,0 l/m 14,4 km/h (3 Bft) O 90 10,4 C 12,9 C
24.09.2012 17:21 12,8 C 85 % 998,7 hPa 0,0 l/m 7,6 km/h (2 Bft) O-SO 112 10,3 C 12,8 C
24.09.2012 17:26 12,8 C 86 % 998,8 hPa 0,0 l/m 16,2 km/h (3 Bft) O-SO 112 10,5 C 12,8 C
24.09.2012 17:31 12,7 C 86 % 998,9 hPa 0,0 l/m 9,0 km/h (2 Bft) S-SO 157 10,4 C 12,7 C
24.09.2012 17:36 12,6 C 87 % 998,8 hPa 0,5 l/m 9,4 km/h (2 Bft) O-SO 112 10,5 C 12,6 C
24.09.2012 17:41 12,6 C 87 % 998,7 hPa 0,0 l/m 4,3 km/h (1 Bft) O-NO 67 10,5 C 12,6 C
24.09.2012 17:46 12,6 C 87 % 998,7 hPa 0,5 l/m 4,7 km/h (1 Bft) O 90 10,5 C 12,6 C
24.09.2012 17:51 12,5 C 87 % 998,7 hPa 0,0 l/m 10,1 km/h (2 Bft) SO 135 10,4 C 12,5 C
24.09.2012 17:56 12,5 C 88 % 998,8 hPa 0,0 l/m 9,4 km/h (2 Bft) O 90 10,6 C 12,5 C
24.09.2012 18:01 12,4 C 88 % 998,5 hPa 0,0 l/m 16,9 km/h (3 Bft) O 90 10,5 C 12,4 C
24.09.2012 18:06 12,4 C 89 % 998,2 hPa 0,5 l/m 13,0 km/h (3 Bft) O-SO 112 10,6 C 12,4 C
24.09.2012 18:11 12,4 C 89 % 998,2 hPa 0,0 l/m 7,2 km/h (2 Bft) O 90 10,6 C 12,4 C
24.09.2012 18:16 12,4 C 89 % 998,2 hPa 0,0 l/m 11,9 km/h (2 Bft) O 90 10,6 C 12,4 C
24.09.2012 18:21 12,4 C 89 % 998,0 hPa 0,0 l/m 10,4 km/h (2 Bft) O 90 10,6 C 12,4 C
24.09.2012 18:26 12,4 C 89 % 998,1 hPa 0,0 l/m 8,6 km/h (2 Bft) O-SO 112 10,6 C 12,4 C
24.09.2012 18:31 12,4 C 89 % 998,2 hPa 0,0 l/m 10,1 km/h (2 Bft) O-NO 67 10,6 C 12,4 C
24.09.2012 18:36 12,5 C 89 % 998,2 hPa 0,0 l/m 6,8 km/h (2 Bft) O-SO 112 10,7 C 12,5 C
24.09.2012 18:41 12,5 C 89 % 998,2 hPa 0,0 l/m 8,3 km/h (2 Bft) O 90 10,7 C 12,5 C
24.09.2012 18:46 12,5 C 89 % 998,2 hPa 0,0 l/m 13,0 km/h (3 Bft) O-SO 112 10,7 C 12,5 C
24.09.2012 18:51 12,5 C 89 % 998,0 hPa 0,0 l/m 9,4 km/h (2 Bft) O 90 10,7 C 12,5 C
24.09.2012 18:56 12,4 C 89 % 998,0 hPa 0,0 l/m 11,9 km/h (2 Bft) O 90 10,6 C 12,4 C
24.09.2012 19:01 12,4 C 89 % 997,9 hPa 0,0 l/m 19,1 km/h (3 Bft) SO 135 10,6 C 12,4 C
24.09.2012 19:06 12,5 C 89 % 997,9 hPa 0,0 l/m 11,2 km/h (2 Bft) O 90 10,7 C 12,5 C
24.09.2012 19:11 12,5 C 89 % 998,1 hPa 0,0 l/m 9,7 km/h (2 Bft) O-SO 112 10,7 C 12,5 C
24.09.2012 19:16 12,5 C 89 % 997,9 hPa 0,0 l/m 13,0 km/h (3 Bft) O 90 10,7 C 12,5 C
24.09.2012 19:21 12,6 C 89 % 998,2 hPa 0,0 l/m 7,9 km/h (2 Bft) O-SO 112 10,8 C 12,6 C
24.09.2012 19:26 12,6 C 89 % 998,2 hPa 0,0 l/m 9,7 km/h (2 Bft) O-SO 112 10,8 C 12,6 C
24.09.2012 19:31 12,6 C 89 % 998,3 hPa 0,0 l/m 7,2 km/h (2 Bft) O-SO 112 10,8 C 12,6 C
24.09.2012 19:36 12,7 C 89 % 998,1 hPa 0,0 l/m 3,2 km/h (1 Bft) SO 135 10,9 C 12,7 C
24.09.2012 19:41 12,7 C 89 % 998,0 hPa 0,0 l/m 4,0 km/h (1 Bft) S-SO 157 10,9 C 12,7 C
24.09.2012 19:46 12,7 C 89 % 997,9 hPa 0,0 l/m 4,3 km/h (1 Bft) S-SO 157 10,9 C 12,7 C
24.09.2012 19:51 12,7 C 89 % 998,0 hPa 0,0 l/m 4,7 km/h (1 Bft) S-SO 157 10,9 C 12,7 C
24.09.2012 19:56 12,7 C 89 % 998,0 hPa 0,0 l/m 4,7 km/h (1 Bft) SO 135 10,9 C 12,7 C
24.09.2012 20:01 12,8 C 89 % 997,9 hPa 0,0 l/m 1,8 km/h (1 Bft) O 90 11,0 C 12,8 C
24.09.2012 20:06 12,8 C 89 % 997,9 hPa 0,0 l/m 10,1 km/h (2 Bft) SO 135 11,0 C 12,8 C
24.09.2012 20:11 12,9 C 89 % 997,7 hPa 0,0 l/m 8,6 km/h (2 Bft) O-SO 112 11,1 C 12,9 C
24.09.2012 20:16 12,9 C 89 % 997,8 hPa 0,0 l/m 10,1 km/h (2 Bft) S-SO 157 11,1 C 12,9 C
24.09.2012 20:21 12,9 C 89 % 998,1 hPa 0,0 l/m 4,7 km/h (1 Bft) S-SO 157 11,1 C 12,9 C
24.09.2012 20:26 12,9 C 88 % 998,0 hPa 0,0 l/m 0,0 km/h (0 Bft) SO 135 11,0 C 12,9 C
24.09.2012 20:31 13,0 C 88 % 998,3 hPa 0,0 l/m 7,9 km/h (2 Bft) S-SO 157 11,1 C 13,0 C
24.09.2012 20:36 13,0 C 88 % 998,5 hPa 0,0 l/m 5,0 km/h (1 Bft) S-SO 157 11,1 C 13,0 C
24.09.2012 20:41 13,0 C 89 % 998,3 hPa 0,5 l/m 6,8 km/h (2 Bft) SO 135 11,2 C 13,0 C
24.09.2012 20:46 13,1 C 89 % 998,3 hPa 0,5 l/m 7,6 km/h (2 Bft) S 180 11,3 C 13,1 C
24.09.2012 20:51 13,1 C 89 % 998,1 hPa 0,0 l/m 6,5 km/h (2 Bft) SO 135 11,3 C 13,1 C
24.09.2012 20:56 13,1 C 89 % 998,3 hPa 0,0 l/m 3,6 km/h (1 Bft) W-SW 247 11,3 C 13,1 C
24.09.2012 21:01 13,2 C 89 % 998,2 hPa 0,0 l/m 4,7 km/h (1 Bft) SO 135 11,4 C 13,2 C
24.09.2012 21:06 13,2 C 89 % 998,1 hPa 0,0 l/m 7,6 km/h (2 Bft) SO 135 11,4 C 13,2 C
24.09.2012 21:11 13,3 C 89 % 998,2 hPa 0,0 l/m 2,5 km/h (1 Bft) SO 135 11,5 C 13,3 C
24.09.2012 21:16 13,3 C 89 % 998,5 hPa 0,0 l/m 4,0 km/h (1 Bft) S-SO 157 11,5 C 13,3 C
24.09.2012 21:21 13,3 C 89 % 998,6 hPa 0,0 l/m 2,2 km/h (1 Bft) S 180 11,5 C 13,3 C
24.09.2012 21:26 13,3 C 89 % 998,7 hPa 0,0 l/m 5,8 km/h (2 Bft) S-SO 157 11,5 C 13,3 C
24.09.2012 21:31 13,3 C 89 % 998,7 hPa 0,0 l/m 2,9 km/h (1 Bft) S 180 11,5 C 13,3 C
24.09.2012 21:36 13,3 C 89 % 998,6 hPa 0,0 l/m 5,0 km/h (1 Bft) SO 135 11,5 C 13,3 C
24.09.2012 21:41 13,4 C 90 % 998,6 hPa 0,0 l/m 2,2 km/h (1 Bft) S 180 11,8 C 13,4 C
24.09.2012 21:46 13,4 C 90 % 998,8 hPa 0,0 l/m 0,0 km/h (0 Bft) W-SW 247 11,8 C 13,4 C
24.09.2012 21:51 13,4 C 90 % 998,8 hPa 0,0 l/m 2,2 km/h (1 Bft) SO 135 11,8 C 13,4 C
24.09.2012 21:56 13,4 C 90 % 998,7 hPa 0,0 l/m 4,0 km/h (1 Bft) S-SW 202 11,8 C 13,4 C
24.09.2012 22:01 13,4 C 90 % 999,0 hPa 0,0 l/m 0,0 km/h (0 Bft) S-SW 202 11,8 C 13,4 C
24.09.2012 22:06 13,5 C 90 % 998,8 hPa 0,0 l/m 9,0 km/h (2 Bft) S-SW 202 11,9 C 13,5 C
24.09.2012 22:11 13,5 C 90 % 999,0 hPa 0,0 l/m 5,8 km/h (2 Bft) S-SW 202 11,9 C 13,5 C
24.09.2012 22:16 13,6 C 90 % 999,0 hPa 0,0 l/m 5,8 km/h (2 Bft) S 180 12,0 C 13,6 C
24.09.2012 22:21 13,6 C 90 % 999,1 hPa 0,0 l/m 5,8 km/h (2 Bft) SW 225 12,0 C 13,6 C
24.09.2012 22:26 13,6 C 90 % 999,2 hPa 0,0 l/m 2,5 km/h (1 Bft) S-SW 202 12,0 C 13,6 C
24.09.2012 22:31 13,6 C 90 % 999,3 hPa 0,0 l/m 4,3 km/h (1 Bft) W-SW 247 12,0 C 13,6 C
24.09.2012 22:36 13,6 C 90 % 999,4 hPa 0,0 l/m 4,7 km/h (1 Bft) W-SW 247 12,0 C 13,6 C
24.09.2012 22:41 13,8 C 90 % 999,5 hPa 0,0 l/m 6,1 km/h (2 Bft) W-SW 247 12,2 C 13,8 C
24.09.2012 22:46 13,8 C 90 % 999,5 hPa 0,0 l/m 5,8 km/h (2 Bft) N-NW 337 12,2 C 13,8 C
24.09.2012 22:51 13,9 C 90 % 999,6 hPa 0,0 l/m 3,2 km/h (1 Bft) W-NW 292 12,3 C 13,9 C
24.09.2012 22:56 14,1 C 90 % 999,7 hPa 0,0 l/m 2,5 km/h (1 Bft) W 270 12,5 C 14,1 C
24.09.2012 23:01 14,2 C 90 % 999,8 hPa 0,0 l/m 4,0 km/h (1 Bft) W 270 12,6 C 14,2 C
24.09.2012 23:06 14,3 C 90 % 999,9 hPa 0,0 l/m 6,8 km/h (2 Bft) W-NW 292 12,7 C 14,3 C
24.09.2012 23:11 14,3 C 89 % 999,9 hPa 0,0 l/m 0,0 km/h (0 Bft) W 270 12,5 C 14,3 C
24.09.2012 23:16 14,3 C 89 % 1000,1 hPa 0,0 l/m 2,2 km/h (1 Bft) W-NW 292 12,5 C 14,3 C
24.09.2012 23:21 14,3 C 89 % 999,9 hPa 0,0 l/m 3,2 km/h (1 Bft) W-NW 292 12,5 C 14,3 C
24.09.2012 23:26 14,3 C 89 % 999,9 hPa 0,0 l/m 2,5 km/h (1 Bft) W-SW 247 12,5 C 14,3 C
24.09.2012 23:31 14,3 C 89 % 1000,0 hPa 0,0 l/m 0,0 km/h (0 Bft) W 270 12,5 C 14,3 C
24.09.2012 23:36 14,3 C 88 % 1000,2 hPa 0,0 l/m 10,8 km/h (2 Bft) W-SW 247 12,3 C 14,3 C
24.09.2012 23:41 14,3 C 87 % 1000,3 hPa 0,0 l/m 7,2 km/h (2 Bft) SW 225 12,2 C 14,3 C
24.09.2012 23:46 14,3 C 87 % 1000,4 hPa 0,0 l/m 10,8 km/h (2 Bft) W-SW 247 12,2 C 14,3 C
24.09.2012 23:51 14,3 C 86 % 1000,5 hPa 0,0 l/m 10,1 km/h (2 Bft) SW 225 12,0 C 14,3 C
24.09.2012 23:56 14,3 C 85 % 1000,6 hPa 0,0 l/m 10,8 km/h (2 Bft) W 270 11,8 C 14,3 C
_ Min-Zeit 02:36 00:01 20:11 - 01:26 - - 00:21 05:21
Minimum _ 9,2 C 68 % 997,7 hPa - 0,0 km/h (0 Bft) - - 5,0 C 6,2 C
_ Max-Zeit 13:41 21:41 00:01 01:41 05:21 - - 23:06 13:41
Maximum _ 14,4 C 90 % 1013,2 hPa 0,5 l/m 22,7 km/h
SO (4 Bft)
- - 12,7 C 14,4 C
Durchschnitt _ 11,7 C 80 % 1003,3 hPa #6,7 l/m 8,9 km/h (2 Bft) SO - 8,4 C 11,4 C
(c) by David Heller